• Join FlightAware (Why Join?)
  • Login
  • US Flag 
04:52AM EDT


 

Airport Tracker/Info


-or-


 

Live Flight TrackerFlight Track Log ✈ DAL3672 ✈ 23-Apr-2013 ✈ KDTW - KMHT

Flight Track Log - Related Links

Times and Time Zones

All times are in EDT time to prevent confusion due to time zone crossing. See the DAL3672 flight status page for this flight to view local times or setup timezone preferences in your user account.

Time Position Orientation Groundspeed Altitude Reporting Facility
EDT Latitude Longitude Course Direction KTS MPH feet Rate Location/Type
10:18AM 42.1994 -83.3522 94° East 155 178 1,500  Level FAA TRACON SMA TRACON (SMA)
10:19AM 42.1836 -83.3508 176° South 171 197 2,300 1,860 Climbing FAA TRACON SMA TRACON (SMA)
10:19AM 42.1672 -83.3478 172° South 193 222 2,800 2,100 Climbing FAA TRACON SMA TRACON (SMA)
10:19AM 42.1458 -83.3436 172° South 208 239 3,700 1,800 Climbing FAA TRACON SMA TRACON (SMA)
10:20AM 42.1325 -83.3408 171° South 231 266 4,000 1,500 Climbing FAA TRACON SMA TRACON (SMA)
10:20AM 42.1083 -83.3308 163° South 268 308 4,700 2,400 Climbing FAA TRACON SMA TRACON (SMA)
10:20AM 42.0942 -83.2983 120° Southeast 257 296 5,600 2,760 Climbing FAA TRACON SMA TRACON (SMA)
10:21AM 42.0967 -83.2650 84° East 275 316 6,600 2,880 Climbing FAA TRACON SMA TRACON (SMA)
10:21AM 42.1044 -83.2250 75° East 290 334 7,600 2,820 Climbing FAA TRACON SMA TRACON (SMA)
10:21AM 42.1131 -83.1939 70° East 293 337 8,500 2,460 Climbing FAA TRACON SMA TRACON (SMA)
10:22AM 42.3116 -82.7415 78° East  Level FlightAware Approximate
10:22AM 42.1244 -83.1622 64° Northeast 318 366 9,200  Level FAA TRACON SMA TRACON (SMA)
10:22AM 42.1356 -83.1308 64° Northeast 302 348 10,100 2,220 Climbing FAA TRACON SMA TRACON (SMA)
10:22AM 42.1500 -83.0897 65° Northeast 329 379 10,700 1,020 Climbing FAA TRACON SMA TRACON (SMA)
10:23AM 42.3333 -82.5860 90° East  Level FlightAware Approximate
10:23AM 42.1622 -83.0539 65° Northeast 346 398 10,800  Level FAA TRACON SMA TRACON (SMA)
10:23AM 42.1736 -83.0194 66° East 352 405 11,300 1,920 Climbing FAA TRACON SMA TRACON (SMA)
10:23AM 42.1914 -82.9692 64° Northeast 362 417 12,100 2,100 Climbing FAA TRACON SMA TRACON (SMA)
10:24AM 42.3660 -82.4369 94° East  Level FlightAware Approximate
10:24AM 42.2050 -82.9308 64° Northeast 371 427 12,700  Level FAA TRACON SMA TRACON (SMA)
10:24AM 42.2214 -82.8817 66° East 374 430 13,500 2,100 Climbing FAA TRACON SMA TRACON (SMA)
10:24AM 42.2353 -82.8417 65° Northeast 379 436 14,100 1,980 Climbing FAA TRACON SMA TRACON (SMA)
10:25AM 42.2494 -82.8019 64° Northeast 382 440 14,800 2,100 Climbing FAA TRACON SMA TRACON (SMA)
10:25AM 42.2669 -82.7517 65° Northeast 384 442 15,500 1,800 Climbing FAA TRACON SMA TRACON (SMA)
10:25AM 42.2806 -82.7108 66° East 386 444 16,000 1,500 Climbing FAA TRACON SMA TRACON (SMA)
10:26AM 42.2947 -82.6697 65° Northeast 391 450 16,500 1,920 Climbing FAA TRACON SMA TRACON (SMA)
10:26AM 42.3131 -82.6178 64° Northeast 396 456 17,300 1,800 Climbing FAA TRACON SMA TRACON (SMA)
10:26AM 42.3264 -82.5803 64° Northeast 395 455 17,700 1,200 Climbing FAA TRACON SMA TRACON (SMA)
10:27AM 42.3414 -82.5344 66° East 396 456 18,100 1,440 Climbing FAA TRACON SMA TRACON (SMA)
10:27AM 42.3592 -82.4822 65° Northeast 398 458 18,700 1,320 Climbing FAA TRACON SMA TRACON (SMA)
10:27AM 42.3672 -82.4417 75° East 396 456 19,000 1,020 Climbing FAA TRACON SMA TRACON (SMA)
10:28AM 42.3650 -82.3914 93° East 395 455 19,400 1,200 Climbing FAA TRACON SMA TRACON (SMA)
10:28AM 42.3639 -82.3331 91° East 403 464 19,800 900 Climbing FAA TRACON SMA TRACON (SMA)
10:28AM 42.3636 -82.2889 90° East 407 468 20,000 840 Climbing FAA TRACON SMA TRACON (SMA)
10:29AM 42.3592 -82.2389 97° East 408 470 20,400 1,020 Climbing FAA TRACON SMA TRACON (SMA)
10:29AM 42.3583 -82.1911 91° East 411 473 20,700 780 Climbing FAA TRACON SMA TRACON (SMA)
10:30AM 42.3519 -82.1200 97° East 395 455 21,000 900 Climbing Cleveland Center
10:31AM 42.3478 -81.9569 92° East 413 475 22,000 1,080 Climbing Cleveland Center
10:32AM 42.3392 -81.7967 94° East 434 499 23,200 1,200 Climbing Cleveland Center
10:33AM 42.3325 -81.6364 93° East 428 493 24,500 1,200 Climbing Cleveland Center
10:34AM 42.3253 -81.4761 93° East 428 493 25,600 1,020 Climbing Cleveland Center
10:35AM 42.3161 -81.3103 94° East 428 493 26,600 960 Climbing Cleveland Center
10:36AM 42.3086 -81.1503 94° East 428 493 27,600 900 Climbing Cleveland Center
10:37AM 42.3011 -81.0042 94° East 428 493 28,500 780 Climbing Cleveland Center
10:38AM 42.2931 -80.8469 94° East 428 493 29,200 660 Climbing Cleveland Center
10:39AM 42.2831 -80.6786 95° East 428 493 29,900 660 Climbing Cleveland Center
10:40AM 42.2747 -80.5158 94° East 433 498 30,600 540 Climbing Cleveland Center
10:41AM 42.2661 -80.3531 94° East 433 498 31,000 180 Climbing Cleveland Center
10:42AM 42.2553 -80.1653 94° East 439 505 31,000  Level Cleveland Center
10:43AM 42.2439 -79.9914 95° East 459 528 31,000  Level Cleveland Center
10:44AM 42.2347 -79.8372 95° East 459 528 31,000  Level Cleveland Center
10:45AM 42.2231 -79.6550 95° East 465 535 31,000  Level Cleveland Center
10:46AM 42.2111 -79.4786 95° East 470 541 31,000  Level Cleveland Center
10:47AM 42.1989 -79.2967 95° East 480 552 31,000  Level Cleveland Center
10:48AM 42.1925 -79.1147 93° East 480 552 31,000  Level Cleveland Center
10:49AM 42.2131 -78.9347 81° East 475 547 31,000  Level Cleveland Center
10:50AM 42.2372 -78.7433 80° East 475 547 31,000  Level Cleveland Center
10:51AM 42.2611 -78.5631 80° East 481 554 31,000  Level Cleveland Center
10:52AM 42.2831 -78.3856 80° East 481 554 31,000  Level Cleveland Center
10:53AM 42.3044 -78.2108 81° East 481 554 31,000  Level Cleveland Center
10:54AM 42.3258 -78.0331 81° East 481 554 31,000  Level Cleveland Center
10:55AM 42.3467 -77.8553 81° East 481 554 31,000  Level Cleveland Center
10:56AM 42.3675 -77.6800 81° East 476 548 31,000  Level Cleveland Center
10:57AM 42.3878 -77.5047 81° East 471 542 31,000  Level Cleveland Center
10:58AM 42.4211 -77.2053 81° East 471 542 31,000  Level Boston Center
10:59AM 42.4386 -77.0350 82° East 471 542 31,000  Level Boston Center
11:00AM 42.4581 -76.8647 81° East 465 535 31,000  Level Boston Center
11:01AM 42.4772 -76.6914 81° East 465 535 31,000  Level Boston Center
11:02AM 42.4961 -76.5181 82° East 465 535 31,000  Level Boston Center
11:03AM 42.5125 -76.3417 83° East 465 535 31,000  Level Boston Center
11:04AM 42.5336 -76.1542 81° East 465 535 31,000  Level Boston Center
11:05AM 42.5514 -75.9831 82° East 465 535 31,000  Level Boston Center
11:06AM 42.5672 -75.8092 83° East 465 535 31,000  Level Boston Center
11:07AM 42.5847 -75.6353 82° East 460 529 31,000  Level Boston Center
11:08AM 42.5994 -75.4808 83° East 460 529 31,000  Level Boston Center
11:09AM 42.6144 -75.3067 83° East 460 529 31,000 -540 Level Boston Center
11:10AM 42.6333 -75.1297 82° East 460 529 30,000 -1,020 Descending Boston Center
11:11AM 42.6500 -74.9469 83° East 472 543 29,000 -540 Descending Boston Center
11:12AM 42.6661 -74.7697 83° East 478 550 29,000  Level Boston Center
11:13AM 42.6800 -74.6006 84° East 467 537 29,000  Level Boston Center
11:14AM 42.6956 -74.4261 83° East 462 532 29,000  Level Boston Center
11:15AM 42.7089 -74.2569 84° East 462 532 29,000  Level Boston Center
11:16AM 42.7242 -74.0792 83° East 462 532 29,000  Level Boston Center
11:17AM 42.7389 -73.9044 83° East 462 532 29,000  Level Boston Center
11:18AM 42.7517 -73.7125 85° East 467 537 29,000  Level Boston Center
11:19AM 42.7597 -73.5344 86° East 462 532 29,000  Level Boston Center
11:20AM 42.7656 -73.3592 87° East 462 532 29,000 -900 Level Boston Center
11:21AM 42.7711 -73.1811 88° East 462 532 27,300 -1,980 Descending Boston Center
11:22AM 42.7739 -73.0283 89° East 457 526 25,100 -2,580 Descending Boston Center
11:23AM 42.7789 -72.8558 88° East 457 526 22,200 -2,760 Descending Boston Center
11:24AM 42.7814 -72.7061 89° East 430 495 19,600 -2,280 Descending Boston Center
11:25AM 42.7881 -72.5647 86° East 392 451 17,700 -2,280 Descending Boston Center
11:26AM 42.7900 -72.4286 89° East 368 423 15,100 -2,580 Descending Boston Center
11:27AM 42.7964 -72.2958 86° East 355 409 12,600 -2,160 Descending Boston Center
11:28AM 42.8128 -72.1797 79° East 322 371 10,800 -1,920 Descending Boston Center
11:29AM 42.8292 -72.0608 79° East 289 333 8,800 -2,040 Descending Boston Center
11:30AM 42.8164 -71.9703 101° East 269 310 6,800 -1,920 Descending Boston Center
11:31AM 42.8011 -71.8686 102° East 258 297 5,000 -1,440 Descending Boston Center
11:32AM 42.7903 -71.8008 102° East 224 258 4,000 -600 Descending Boston Center
11:33AM 42.7878 -71.7214 92° East 186 214 3,800 -540 Descending Boston Center
11:34AM 42.7853 -71.6622 93° East 180 207 3,000 -420 Descending Boston Center
11:35AM 42.8078 -71.5994 64° Northeast 164 189 3,000  Level Boston Center